sensor_id;sensor_type;location;lat;lon;timestamp;pressure;altitude;pressure_sealevel;temperature;humidity
12247;BME280;6186;52.022;4.692;2022-11-20T00:02:25;101525.25;;;0.70;100.00
12247;BME280;6186;52.022;4.692;2022-11-20T00:04:50;101523.50;;;0.70;100.00
12247;BME280;6186;52.022;4.692;2022-11-20T00:07:15;101522.66;;;0.70;100.00
12247;BME280;6186;52.022;4.692;2022-11-20T00:09:41;101524.25;;;0.65;100.00
12247;BME280;6186;52.022;4.692;2022-11-20T00:12:06;101532.00;;;0.65;100.00
12247;BME280;6186;52.022;4.692;2022-11-20T00:14:31;101534.63;;;0.66;100.00
12247;BME280;6186;52.022;4.692;2022-11-20T00:16:57;101532.94;;;0.67;100.00
12247;BME280;6186;52.022;4.692;2022-11-20T00:19:22;101537.19;;;0.65;100.00
12247;BME280;6186;52.022;4.692;2022-11-20T00:21:47;101533.75;;;0.64;100.00
12247;BME280;6186;52.022;4.692;2022-11-20T00:24:16;101530.28;;;0.64;100.00
12247;BME280;6186;52.022;4.692;2022-11-20T00:26:41;101534.53;;;0.62;100.00
12247;BME280;6186;52.022;4.692;2022-11-20T00:29:09;101534.53;;;0.62;100.00
12247;BME280;6186;52.022;4.692;2022-11-20T00:31:35;101536.19;;;0.58;100.00
12247;BME280;6186;52.022;4.692;2022-11-20T00:34:00;101535.25;;;0.56;100.00
12247;BME280;6186;52.022;4.692;2022-11-20T00:36:27;101528.31;;;0.55;100.00
12247;BME280;6186;52.022;4.692;2022-11-20T00:38:55;101534.31;;;0.53;100.00
12247;BME280;6186;52.022;4.692;2022-11-20T00:41:21;101529.06;;;0.51;100.00
12247;BME280;6186;52.022;4.692;2022-11-20T00:43:47;101526.44;;;0.50;100.00
12247;BME280;6186;52.022;4.692;2022-11-20T00:46:17;101522.09;;;0.49;100.00
12247;BME280;6186;52.022;4.692;2022-11-20T00:48:43;101524.69;;;0.49;100.00
12247;BME280;6186;52.022;4.692;2022-11-20T00:51:11;101517.75;;;0.48;100.00
12247;BME280;6186;52.022;4.692;2022-11-20T00:53:36;101516.91;;;0.47;100.00
12247;BME280;6186;52.022;4.692;2022-11-20T00:56:04;101515.09;;;0.45;100.00
12247;BME280;6186;52.022;4.692;2022-11-20T00:58:32;101509.06;;;0.46;100.00
12247;BME280;6186;52.022;4.692;2022-11-20T01:01:07;101489.91;;;0.39;100.00
12247;BME280;6186;52.022;4.692;2022-11-20T01:03:34;101491.59;;;0.37;100.00
12247;BME280;6186;52.022;4.692;2022-11-20T01:06:05;101502.09;;;0.43;100.00
12247;BME280;6186;52.022;4.692;2022-11-20T01:08:33;101503.78;;;0.41;100.00
12247;BME280;6186;52.022;4.692;2022-11-20T01:11:00;101514.03;;;0.38;100.00
12247;BME280;6186;52.022;4.692;2022-11-20T01:13:26;101507.13;;;0.37;100.00
12247;BME280;6186;52.022;4.692;2022-11-20T01:16:14;101512.31;;;0.37;100.00
12247;BME280;6186;52.022;4.692;2022-11-20T01:18:43;101513.13;;;0.36;100.00
12247;BME280;6186;52.022;4.692;2022-11-20T01:21:13;101515.66;;;0.35;100.00
12247;BME280;6186;52.022;4.692;2022-11-20T01:23:41;101504.44;;;0.34;100.00
12247;BME280;6186;52.022;4.692;2022-11-20T01:26:09;101509.56;;;0.33;100.00
12247;BME280;6186;52.022;4.692;2022-11-20T01:28:35;101507.81;;;0.30;100.00
12247;BME280;6186;52.022;4.692;2022-11-20T01:31:01;101504.34;;;0.30;100.00
12247;BME280;6186;52.022;4.692;2022-11-20T01:33:26;101502.56;;;0.29;100.00
12247;BME280;6186;52.022;4.692;2022-11-20T01:35:52;101498.22;;;0.28;100.00
12247;BME280;6186;52.022;4.692;2022-11-20T01:38:18;101493.88;;;0.27;100.00
12247;BME280;6186;52.022;4.692;2022-11-20T01:40:45;101492.13;;;0.26;100.00
12247;BME280;6186;52.022;4.692;2022-11-20T01:43:19;101475.72;;;0.25;100.00
12247;BME280;6186;52.022;4.692;2022-11-20T01:46:18;101479.94;;;0.22;100.00
12247;BME280;6186;52.022;4.692;2022-11-20T01:48:56;101488.56;;;0.21;100.00
12247;BME280;6186;52.022;4.692;2022-11-20T01:51:42;101502.31;;;0.20;100.00
12247;BME280;6186;52.022;4.692;2022-11-20T01:54:13;101491.03;;;0.18;100.00
12247;BME280;6186;52.022;4.692;2022-11-20T01:56:42;101486.63;;;0.14;100.00
12247;BME280;6186;52.022;4.692;2022-11-20T01:59:11;101494.28;;;0.09;100.00
12247;BME280;6186;52.022;4.692;2022-11-20T02:01:38;101496.97;;;0.14;100.00
12247;BME280;6186;52.022;4.692;2022-11-20T02:04:04;101503.81;;;0.12;100.00
12247;BME280;6186;52.022;4.692;2022-11-20T02:06:35;101505.44;;;0.08;100.00
12247;BME280;6186;52.022;4.692;2022-11-20T02:09:03;101507.19;;;0.08;100.00
12247;BME280;6186;52.022;4.692;2022-11-20T02:11:30;101496.56;;;-0.02;100.00
12247;BME280;6186;52.022;4.692;2022-11-20T02:13:56;101493.97;;;-0.02;100.00
12247;BME280;6186;52.022;4.692;2022-11-20T02:16:25;101493.22;;;0.03;100.00
12247;BME280;6186;52.022;4.692;2022-11-20T02:18:51;101505.25;;;0.00;100.00
12247;BME280;6186;52.022;4.692;2022-11-20T02:21:30;101505.25;;;0.00;100.00
12247;BME280;6186;52.022;4.692;2022-11-20T02:24:08;101513.84;;;-0.01;100.00
12247;BME280;6186;52.022;4.692;2022-11-20T02:27:02;101507.75;;;-0.03;100.00
12247;BME280;6186;52.022;4.692;2022-11-20T02:29:43;101505.97;;;-0.04;100.00
12247;BME280;6186;52.022;4.692;2022-11-20T02:32:31;101496.34;;;-0.09;100.00
12247;BME280;6186;52.022;4.692;2022-11-20T02:34:57;101492.91;;;-0.10;100.00
12247;BME280;6186;52.022;4.692;2022-11-20T02:37:23;101494.63;;;-0.09;100.00
12247;BME280;6186;52.022;4.692;2022-11-20T02:39:53;101489.31;;;-0.13;100.00
12247;BME280;6186;52.022;4.692;2022-11-20T02:42:18;101496.28;;;-0.12;100.00
12247;BME280;6186;52.022;4.692;2022-11-20T02:44:43;101493.66;;;-0.14;100.00
12247;BME280;6186;52.022;4.692;2022-11-20T02:47:09;101487.56;;;-0.16;100.00
12247;BME280;6186;52.022;4.692;2022-11-20T02:49:35;101469.25;;;-0.22;100.00
12247;BME280;6186;52.022;4.692;2022-11-20T02:52:00;101476.28;;;-0.18;100.00
12247;BME280;6186;52.022;4.692;2022-11-20T02:54:25;101469.25;;;-0.22;100.00
12247;BME280;6186;52.022;4.692;2022-11-20T02:56:51;101465.91;;;-0.19;100.00
12247;BME280;6186;52.022;4.692;2022-11-20T02:59:16;101464.88;;;-0.24;100.00
12247;BME280;6186;52.022;4.692;2022-11-20T03:01:42;101483.94;;;-0.21;100.00
12247;BME280;6186;52.022;4.692;2022-11-20T03:04:07;101467.41;;;-0.26;100.00
12247;BME280;6186;52.022;4.692;2022-11-20T03:06:33;101469.22;;;-0.23;100.00
12247;BME280;6186;52.022;4.692;2022-11-20T03:08:58;101465.72;;;-0.25;100.00
12247;BME280;6186;52.022;4.692;2022-11-20T03:11:23;101451.91;;;-0.26;100.00
12247;BME280;6186;52.022;4.692;2022-11-20T03:13:49;101449.25;;;-0.29;100.00
12247;BME280;6186;52.022;4.692;2022-11-20T03:16:17;101440.28;;;-0.40;100.00
12247;BME280;6186;52.022;4.692;2022-11-20T03:18:43;101452.56;;;-0.33;100.00
12247;BME280;6186;52.022;4.692;2022-11-20T03:21:10;101441.16;;;-0.39;100.00
12247;BME280;6186;52.022;4.692;2022-11-20T03:23:36;101446.34;;;-0.39;100.00
12247;BME280;6186;52.022;4.692;2022-11-20T03:26:12;101435.19;;;-0.38;100.00
12247;BME280;6186;52.022;4.692;2022-11-20T03:28:38;101429.09;;;-0.40;100.00
12247;BME280;6186;52.022;4.692;2022-11-20T03:31:08;101418.78;;;-0.39;100.00
12247;BME280;6186;52.022;4.692;2022-11-20T03:33:37;101425.59;;;-0.41;100.00
12247;BME280;6186;52.022;4.692;2022-11-20T03:36:05;101428.19;;;-0.41;100.00
12247;BME280;6186;52.022;4.692;2022-11-20T03:38:31;101422.94;;;-0.44;100.00
12247;BME280;6186;52.022;4.692;2022-11-20T03:41:19;101428.19;;;-0.41;100.00
12247;BME280;6186;52.022;4.692;2022-11-20T03:43:50;101424.69;;;-0.43;100.00
12247;BME280;6186;52.022;4.692;2022-11-20T03:46:15;101424.66;;;-0.44;100.00
12247;BME280;6186;52.022;4.692;2022-11-20T03:48:41;101421.22;;;-0.43;100.00
12247;BME280;6186;52.022;4.692;2022-11-20T03:51:15;101405.66;;;-0.45;100.00
12247;BME280;6186;52.022;4.692;2022-11-20T03:53:42;101396.09;;;-0.47;100.00
12247;BME280;6186;52.022;4.692;2022-11-20T03:56:09;101398.78;;;-0.44;100.00
12247;BME280;6186;52.022;4.692;2022-11-20T03:58:35;101400.50;;;-0.45;100.00
12247;BME280;6186;52.022;4.692;2022-11-20T04:01:12;101398.63;;;-0.50;100.00
12247;BME280;6186;52.022;4.692;2022-11-20T04:03:39;101414.28;;;-0.46;100.00
12247;BME280;6186;52.022;4.692;2022-11-20T04:06:07;101419.47;;;-0.44;100.00
12247;BME280;6186;52.022;4.692;2022-11-20T04:08:33;101416.03;;;-0.43;100.00
12247;BME280;6186;52.022;4.692;2022-11-20T04:11:12;101405.72;;;-0.43;100.00
12247;BME280;6186;52.022;4.692;2022-11-20T04:13:38;101409.19;;;-0.43;100.00
12247;BME280;6186;52.022;4.692;2022-11-20T04:16:06;101405.66;;;-0.45;100.00
12247;BME280;6186;52.022;4.692;2022-11-20T04:18:32;101390.09;;;-0.48;100.00
12247;BME280;6186;52.022;4.692;2022-11-20T04:20:58;101386.63;;;-0.48;100.00
12247;BME280;6186;52.022;4.692;2022-11-20T04:23:24;101371.84;;;-0.52;100.00
12247;BME280;6186;52.022;4.692;2022-11-20T04:25:49;101368.38;;;-0.53;100.00
12247;BME280;6186;52.022;4.692;2022-11-20T04:28:15;101378.09;;;-0.46;100.00
12247;BME280;6186;52.022;4.692;2022-11-20T04:30:40;101365.97;;;-0.47;100.00
12247;BME280;6186;52.022;4.692;2022-11-20T04:33:05;101374.59;;;-0.46;100.00
12247;BME280;6186;52.022;4.692;2022-11-20T04:35:34;101374.59;;;-0.46;100.00
12247;BME280;6186;52.022;4.692;2022-11-20T04:37:59;101378.94;;;-0.45;100.00
12247;BME280;6186;52.022;4.692;2022-11-20T04:40:24;101374.59;;;-0.46;100.00
12247;BME280;6186;52.022;4.692;2022-11-20T04:42:49;101375.53;;;-0.44;100.00
12247;BME280;6186;52.022;4.692;2022-11-20T04:45:15;101362.47;;;-0.49;100.00
12247;BME280;6186;52.022;4.692;2022-11-20T04:47:40;101369.47;;;-0.45;100.00
12247;BME280;6186;52.022;4.692;2022-11-20T04:50:06;101362.47;;;-0.49;100.00
12247;BME280;6186;52.022;4.692;2022-11-20T04:52:32;101374.56;;;-0.48;100.00
12247;BME280;6186;52.022;4.692;2022-11-20T04:54:57;101369.38;;;-0.49;100.00
12247;BME280;6186;52.022;4.692;2022-11-20T04:57:23;101367.56;;;-0.52;100.00
12247;BME280;6186;52.022;4.692;2022-11-20T04:59:48;101360.59;;;-0.54;100.00
12247;BME280;6186;52.022;4.692;2022-11-20T05:02:13;101369.19;;;-0.55;100.00
12247;BME280;6186;52.022;4.692;2022-11-20T05:04:39;101376.06;;;-0.56;100.00
12247;BME280;6186;52.022;4.692;2022-11-20T05:07:04;101373.44;;;-0.57;100.00
12247;BME280;6186;52.022;4.692;2022-11-20T05:09:29;101367.25;;;-0.62;100.00
12247;BME280;6186;52.022;4.692;2022-11-20T05:11:55;101367.47;;;-0.55;100.00
12247;BME280;6186;52.022;4.692;2022-11-20T05:14:20;101363.09;;;-0.57;100.00
12247;BME280;6186;52.022;4.692;2022-11-20T05:16:45;101369.97;;;-0.58;100.00
12247;BME280;6186;52.022;4.692;2022-11-20T05:19:11;101376.00;;;-0.59;100.00
12247;BME280;6186;52.022;4.692;2022-11-20T05:21:36;101376.00;;;-0.59;100.00
12247;BME280;6186;52.022;4.692;2022-11-20T05:24:01;101373.34;;;-0.60;100.00
12247;BME280;6186;52.022;4.692;2022-11-20T05:26:27;101385.44;;;-0.59;100.00
12247;BME280;6186;52.022;4.692;2022-11-20T05:28:52;101380.28;;;-0.59;100.00
12247;BME280;6186;52.022;4.692;2022-11-20T05:31:20;101377.66;;;-0.61;100.00
12247;BME280;6186;52.022;4.692;2022-11-20T05:33:46;101386.31;;;-0.59;100.00
12247;BME280;6186;52.022;4.692;2022-11-20T05:36:13;101392.41;;;-0.57;100.00
12247;BME280;6186;52.022;4.692;2022-11-20T05:38:39;101386.41;;;-0.56;100.00
12247;BME280;6186;52.022;4.692;2022-11-20T05:41:08;101380.34;;;-0.56;100.00
12247;BME280;6186;52.022;4.692;2022-11-20T05:43:35;101373.44;;;-0.57;100.00
12247;BME280;6186;52.022;4.692;2022-11-20T05:46:01;101370.81;;;-0.59;100.00
12247;BME280;6186;52.022;4.692;2022-11-20T05:48:27;101374.25;;;-0.58;100.00
12247;BME280;6186;52.022;4.692;2022-11-20T05:50:52;101372.56;;;-0.58;100.00
12247;BME280;6186;52.022;4.692;2022-11-20T05:53:17;101364.00;;;-0.57;100.00
12247;BME280;6186;52.022;4.692;2022-11-20T05:55:43;101363.09;;;-0.57;100.00
12247;BME280;6186;52.022;4.692;2022-11-20T05:58:08;101363.13;;;-0.56;100.00
12247;BME280;6186;52.022;4.692;2022-11-20T06:00:33;101354.53;;;-0.55;100.00
12247;BME280;6186;52.022;4.692;2022-11-20T06:02:59;101358.88;;;-0.54;100.00
12247;BME280;6186;52.022;4.692;2022-11-20T06:05:24;101360.63;;;-0.53;100.00
12247;BME280;6186;52.022;4.692;2022-11-20T06:07:49;101360.63;;;-0.53;100.00
12247;BME280;6186;52.022;4.692;2022-11-20T06:10:15;101348.63;;;-0.51;100.00
12247;BME280;6186;52.022;4.692;2022-11-20T06:12:40;101339.16;;;-0.50;100.00
12247;BME280;6186;52.022;4.692;2022-11-20T06:15:06;101330.47;;;-0.52;100.00
12247;BME280;6186;52.022;4.692;2022-11-20T06:17:31;101334.88;;;-0.50;100.00
12247;BME280;6186;52.022;4.692;2022-11-20T06:19:56;101329.69;;;-0.50;100.00
12247;BME280;6186;52.022;4.692;2022-11-20T06:22:22;101334.00;;;-0.50;100.00
12247;BME280;6186;52.022;4.692;2022-11-20T06:24:47;101338.28;;;-0.51;100.00
12247;BME280;6186;52.022;4.692;2022-11-20T06:27:13;101326.97;;;-0.54;100.00
12247;BME280;6186;52.022;4.692;2022-11-20T06:29:38;101327.88;;;-0.54;100.00
12247;BME280;6186;52.022;4.692;2022-11-20T06:32:03;101326.09;;;-0.55;100.00
12247;BME280;6186;52.022;4.692;2022-11-20T06:34:29;101312.19;;;-0.60;100.00
12247;BME280;6186;52.022;4.692;2022-11-20T06:36:54;101315.75;;;-0.55;100.00
12247;BME280;6186;52.022;4.692;2022-11-20T06:39:19;101314.88;;;-0.57;100.00
12247;BME280;6186;52.022;4.692;2022-11-20T06:41:45;101318.44;;;-0.52;100.00
12247;BME280;6186;52.022;4.692;2022-11-20T06:44:10;101323.63;;;-0.52;100.00
12247;BME280;6186;52.022;4.692;2022-11-20T06:46:35;101319.25;;;-0.53;100.00
12247;BME280;6186;52.022;4.692;2022-11-20T06:49:01;101315.81;;;-0.53;100.00
12247;BME280;6186;52.022;4.692;2022-11-20T06:51:26;101314.94;;;-0.54;100.00
12247;BME280;6186;52.022;4.692;2022-11-20T06:53:51;101317.56;;;-0.52;100.00
12247;BME280;6186;52.022;4.692;2022-11-20T06:56:17;101305.47;;;-0.53;100.00
12247;BME280;6186;52.022;4.692;2022-11-20T06:58:42;101308.19;;;-0.47;100.00
12247;BME280;6186;52.022;4.692;2022-11-20T07:01:12;101308.31;;;-0.44;100.00
12247;BME280;6186;52.022;4.692;2022-11-20T07:03:38;101304.06;;;-0.42;100.00
12247;BME280;6186;52.022;4.692;2022-11-20T07:06:05;101298.03;;;-0.41;100.00
12247;BME280;6186;52.022;4.692;2022-11-20T07:08:31;101299.13;;;-0.33;100.00
12247;BME280;6186;52.022;4.692;2022-11-20T07:11:01;101307.78;;;-0.31;100.00
12247;BME280;6186;52.022;4.692;2022-11-20T07:13:28;101288.63;;;-0.38;100.00
12247;BME280;6186;52.022;4.692;2022-11-20T07:15:53;101313.94;;;-0.26;100.00
12247;BME280;6186;52.022;4.692;2022-11-20T07:18:19;101309.72;;;-0.23;100.00
12247;BME280;6186;52.022;4.692;2022-11-20T07:20:44;101310.63;;;-0.21;100.00
12247;BME280;6186;52.022;4.692;2022-11-20T07:23:10;101312.47;;;-0.17;100.00
12247;BME280;6186;52.022;4.692;2022-11-20T07:25:35;101291.53;;;-0.27;100.00
12247;BME280;6186;52.022;4.692;2022-11-20T07:28:01;101306.63;;;-0.10;100.00
12247;BME280;6186;52.022;4.692;2022-11-20T07:30:27;101311.00;;;-0.07;100.00
12247;BME280;6186;52.022;4.692;2022-11-20T07:32:54;101317.94;;;-0.06;100.00
12247;BME280;6186;52.022;4.692;2022-11-20T07:35:19;101315.41;;;-0.03;100.00
12247;BME280;6186;52.022;4.692;2022-11-20T07:37:45;101292.69;;;-0.15;100.00
12247;BME280;6186;52.022;4.692;2022-11-20T07:40:12;101311.91;;;-0.05;100.00
12247;BME280;6186;52.022;4.692;2022-11-20T07:42:37;101320.69;;;0.00;100.00
12247;BME280;6186;52.022;4.692;2022-11-20T07:45:03;101314.47;;;-0.07;100.00
12247;BME280;6186;52.022;4.692;2022-11-20T07:47:28;101311.19;;;0.00;100.00
12247;BME280;6186;52.022;4.692;2022-11-20T07:49:53;101315.53;;;0.02;100.00
12247;BME280;6186;52.022;4.692;2022-11-20T07:52:19;101316.38;;;0.02;100.00
12247;BME280;6186;52.022;4.692;2022-11-20T07:54:44;101311.31;;;0.05;100.00
12247;BME280;6186;52.022;4.692;2022-11-20T07:57:09;101311.34;;;0.07;100.00
12247;BME280;6186;52.022;4.692;2022-11-20T07:59:35;101318.31;;;0.09;100.00
12247;BME280;6186;52.022;4.692;2022-11-20T08:02:00;101311.47;;;0.11;100.00
12247;BME280;6186;52.022;4.692;2022-11-20T08:04:26;101315.91;;;0.17;100.00
12247;BME280;6186;52.022;4.692;2022-11-20T08:06:54;101313.38;;;0.20;100.00
12247;BME280;6186;52.022;4.692;2022-11-20T08:09:19;101310.78;;;0.20;100.00
12247;BME280;6186;52.022;4.692;2022-11-20T08:11:44;101321.16;;;0.21;100.00
12247;BME280;6186;52.022;4.692;2022-11-20T08:14:28;101323.75;;;0.21;100.00
12247;BME280;6186;52.022;4.692;2022-11-20T08:16:54;101308.03;;;0.14;100.00
12247;BME280;6186;52.022;4.692;2022-11-20T08:19:19;101323.72;;;0.20;100.00
12247;BME280;6186;52.022;4.692;2022-11-20T08:21:45;101319.53;;;0.25;100.00
12247;BME280;6186;52.022;4.692;2022-11-20T08:24:11;101314.41;;;0.26;100.00
12247;BME280;6186;52.022;4.692;2022-11-20T08:26:38;101309.38;;;0.32;100.00
12247;BME280;6186;52.022;4.692;2022-11-20T08:29:04;101314.63;;;0.35;100.00
12247;BME280;6186;52.022;4.692;2022-11-20T08:31:30;101318.22;;;0.42;100.00
12247;BME280;6186;52.022;4.692;2022-11-20T08:33:56;101312.34;;;0.49;100.00
12247;BME280;6186;52.022;4.692;2022-11-20T08:36:22;101300.38;;;0.54;100.00
12247;BME280;6186;52.022;4.692;2022-11-20T08:38:49;101290.06;;;0.57;100.00
12247;BME280;6186;52.022;4.692;2022-11-20T08:41:15;101298.84;;;0.62;100.00
12247;BME280;6186;52.022;4.692;2022-11-20T08:43:52;101292.81;;;0.63;100.00
12247;BME280;6186;52.022;4.692;2022-11-20T08:46:18;101290.31;;;0.66;100.00
12247;BME280;6186;52.022;4.692;2022-11-20T08:48:44;101288.66;;;0.71;100.00
12247;BME280;6186;52.022;4.692;2022-11-20T08:51:10;101280.00;;;0.70;100.00
12247;BME280;6186;52.022;4.692;2022-11-20T08:53:36;101289.78;;;0.83;100.00
12247;BME280;6186;52.022;4.692;2022-11-20T08:56:01;101277.81;;;0.87;100.00
12247;BME280;6186;52.022;4.692;2022-11-20T08:58:26;101282.28;;;0.95;100.00
12247;BME280;6186;52.022;4.692;2022-11-20T09:00:52;101285.00;;;1.02;100.00
12247;BME280;6186;52.022;4.692;2022-11-20T09:03:18;101288.59;;;1.08;100.00
12247;BME280;6186;52.022;4.692;2022-11-20T09:05:43;101283.47;;;1.11;100.00
12247;BME280;6186;52.022;4.692;2022-11-20T09:08:08;101285.16;;;1.09;100.00
12247;BME280;6186;52.022;4.692;2022-11-20T09:10:34;101287.88;;;1.15;100.00
12247;BME280;6186;52.022;4.692;2022-11-20T09:13:00;101264.56;;;1.15;100.00
12247;BME280;6186;52.022;4.692;2022-11-20T09:15:25;101267.22;;;1.20;100.00
12247;BME280;6186;52.022;4.692;2022-11-20T09:17:55;101274.22;;;1.25;100.00
12247;BME280;6186;52.022;4.692;2022-11-20T09:20:21;101267.34;;;1.26;100.00
12247;BME280;6186;52.022;4.692;2022-11-20T09:22:47;101250.97;;;1.28;100.00
12247;BME280;6186;52.022;4.692;2022-11-20T09:25:13;101258.00;;;1.34;100.00
12247;BME280;6186;52.022;4.692;2022-11-20T09:27:38;101258.00;;;1.35;100.00
12247;BME280;6186;52.022;4.692;2022-11-20T09:30:04;101252.00;;;1.36;100.00
12247;BME280;6186;52.022;4.692;2022-11-20T09:32:30;101247.69;;;1.38;100.00
12247;BME280;6186;52.022;4.692;2022-11-20T09:34:55;101230.34;;;1.34;100.00
12247;BME280;6186;52.022;4.692;2022-11-20T09:37:20;101234.81;;;1.43;100.00
12247;BME280;6186;52.022;4.692;2022-11-20T09:39:46;101228.88;;;1.50;100.00
12247;BME280;6186;52.022;4.692;2022-11-20T09:47:45;101220.53;;;1.66;100.00
12247;BME280;6186;52.022;4.692;2022-11-20T09:50:43;101219.78;;;1.73;100.00
12247;BME280;6186;52.022;4.692;2022-11-20T09:56:01;101194.06;;;1.88;100.00
12247;BME280;6186;52.022;4.692;2022-11-20T09:58:40;101202.88;;;1.99;100.00
12247;BME280;6186;52.022;4.692;2022-11-20T10:01:15;101206.44;;;2.04;100.00
12247;BME280;6186;52.022;4.692;2022-11-20T10:06:29;101197.00;;;2.11;100.00
12247;BME280;6186;52.022;4.692;2022-11-20T10:09:03;101189.19;;;2.08;100.00
12247;BME280;6186;52.022;4.692;2022-11-20T10:26:25;101146.03;;;2.16;100.00
12247;BME280;6186;52.022;4.692;2022-11-20T10:29:12;101126.00;;;2.07;100.00
12247;BME280;6186;52.022;4.692;2022-11-20T10:31:43;101131.22;;;2.09;100.00
12247;BME280;6186;52.022;4.692;2022-11-20T10:37:13;101130.38;;;2.10;100.00
12247;BME280;6186;52.022;4.692;2022-11-20T10:42:42;101106.22;;;2.17;100.00
12247;BME280;6186;52.022;4.692;2022-11-20T10:47:49;101099.44;;;2.28;100.00
12247;BME280;6186;52.022;4.692;2022-11-20T10:50:19;101084.75;;;2.30;100.00
12247;BME280;6186;52.022;4.692;2022-11-20T11:00:37;101072.00;;;2.48;100.00
12247;BME280;6186;52.022;4.692;2022-11-20T11:03:07;101064.22;;;2.51;100.00
12247;BME280;6186;52.022;4.692;2022-11-20T11:05:53;101069.50;;;2.58;100.00
12247;BME280;6186;52.022;4.692;2022-11-20T11:08:20;101060.00;;;2.60;100.00
12247;BME280;6186;52.022;4.692;2022-11-20T11:10:51;101070.47;;;2.66;100.00
12247;BME280;6186;52.022;4.692;2022-11-20T11:13:22;101061.75;;;2.63;100.00
12247;BME280;6186;52.022;4.692;2022-11-20T11:15:47;101059.09;;;2.55;100.00
12247;BME280;6186;52.022;4.692;2022-11-20T11:18:23;101060.81;;;2.58;100.00
12247;BME280;6186;52.022;4.692;2022-11-20T11:20:53;101050.41;;;2.55;100.00
12247;BME280;6186;52.022;4.692;2022-11-20T11:26:05;101044.47;;;2.65;100.00
12247;BME280;6186;52.022;4.692;2022-11-20T11:28:31;101030.63;;;2.69;100.00
12247;BME280;6186;52.022;4.692;2022-11-20T11:30:57;101016.78;;;2.71;100.00
12247;BME280;6186;52.022;4.692;2022-11-20T11:33:31;101020.34;;;2.81;100.00
12247;BME280;6186;52.022;4.692;2022-11-20T11:36:04;100999.56;;;2.82;100.00
12247;BME280;6186;52.022;4.692;2022-11-20T11:38:41;101000.50;;;2.89;100.00
12247;BME280;6186;52.022;4.692;2022-11-20T11:41:12;100986.63;;;2.87;100.00
12247;BME280;6186;52.022;4.692;2022-11-20T11:43:53;100986.66;;;2.93;100.00
12247;BME280;6186;52.022;4.692;2022-11-20T11:46:40;100977.16;;;2.95;100.00
12247;BME280;6186;52.022;4.692;2022-11-20T11:51:58;100956.38;;;2.97;100.00
12247;BME280;6186;52.022;4.692;2022-11-20T11:57:12;100939.06;;;3.02;100.00
12247;BME280;6186;52.022;4.692;2022-11-20T12:02:34;100913.94;;;3.02;100.00
12247;BME280;6186;52.022;4.692;2022-11-20T12:05:21;100906.16;;;3.05;100.00
12247;BME280;6186;52.022;4.692;2022-11-20T12:07:56;100901.81;;;3.09;100.00
12247;BME280;6186;52.022;4.692;2022-11-20T12:10:48;100917.47;;;3.12;100.00
12247;BME280;6186;52.022;4.692;2022-11-20T12:15:54;100920.06;;;3.15;100.00
12247;BME280;6186;52.022;4.692;2022-11-20T12:18:21;100926.19;;;3.21;100.00
12247;BME280;6186;52.022;4.692;2022-11-20T12:21:04;100917.50;;;3.24;100.00
12247;BME280;6186;52.022;4.692;2022-11-20T12:26:30;100920.13;;;3.22;100.00
12247;BME280;6186;52.022;4.692;2022-11-20T12:31:48;100906.25;;;3.22;100.00
12247;BME280;6186;52.022;4.692;2022-11-20T12:34:24;100908.00;;;3.21;100.00
12247;BME280;6186;52.022;4.692;2022-11-20T12:39:21;100906.31;;;3.29;100.00
12247;BME280;6186;52.022;4.692;2022-11-20T12:42:12;100906.31;;;3.29;100.00
12247;BME280;6186;52.022;4.692;2022-11-20T12:53:05;100850.84;;;3.36;100.00
12247;BME280;6186;52.022;4.692;2022-11-20T12:58:23;100843.94;;;3.50;100.00
12247;BME280;6186;52.022;4.692;2022-11-20T13:03:49;100843.09;;;3.54;100.00
12247;BME280;6186;52.022;4.692;2022-11-20T13:06:19;100824.84;;;3.48;100.00
12247;BME280;6186;52.022;4.692;2022-11-20T13:08:55;100832.69;;;3.53;100.00
12247;BME280;6186;52.022;4.692;2022-11-20T13:14:26;100816.22;;;3.58;100.00
12247;BME280;6186;52.022;4.692;2022-11-20T13:17:09;100803.22;;;3.61;100.00
12247;BME280;6186;52.022;4.692;2022-11-20T13:19:36;100808.41;;;3.66;100.00
12247;BME280;6186;52.022;4.692;2022-11-20T13:22:02;100802.34;;;3.65;100.00
12247;BME280;6186;52.022;4.692;2022-11-20T13:24:31;100798.91;;;3.72;100.00
12247;BME280;6186;52.022;4.692;2022-11-20T13:29:41;100789.34;;;3.73;100.00
12247;BME280;6186;52.022;4.692;2022-11-20T13:34:39;100795.44;;;3.79;100.00
12247;BME280;6186;52.022;4.692;2022-11-20T13:37:04;100782.44;;;3.76;100.00
12247;BME280;6186;52.022;4.692;2022-11-20T13:39:35;100783.28;;;3.78;100.00
12247;BME280;6186;52.022;4.692;2022-11-20T13:42:18;100765.91;;;3.71;100.00
12247;BME280;6186;52.022;4.692;2022-11-20T13:44:54;100768.53;;;3.77;100.00
12247;BME280;6186;52.022;4.692;2022-11-20T13:47:27;100761.59;;;3.79;100.00
12247;BME280;6186;52.022;4.692;2022-11-20T13:49:55;100752.91;;;3.77;100.00
12247;BME280;6186;52.022;4.692;2022-11-20T13:55:48;100750.31;;;3.87;100.00
12247;BME280;6186;52.022;4.692;2022-11-20T14:01:23;100735.59;;;3.92;100.00
12247;BME280;6186;52.022;4.692;2022-11-20T14:03:50;100732.94;;;3.90;100.00
12247;BME280;6186;52.022;4.692;2022-11-20T14:08:49;100731.25;;;3.88;100.00
12247;BME280;6186;52.022;4.692;2022-11-20T14:14:03;100727.75;;;3.90;100.00
12247;BME280;6186;52.022;4.692;2022-11-20T14:16:34;100719.97;;;3.92;100.00
12247;BME280;6186;52.022;4.692;2022-11-20T14:21:52;100679.16;;;3.95;100.00
12247;BME280;6186;52.022;4.692;2022-11-20T14:24:23;100661.78;;;3.88;100.00
12247;BME280;6186;52.022;4.692;2022-11-20T14:26:50;100674.81;;;3.96;100.00
12247;BME280;6186;52.022;4.692;2022-11-20T14:29:18;100666.13;;;3.97;100.00
12247;BME280;6186;52.022;4.692;2022-11-20T14:31:45;100660.03;;;3.98;100.00
12247;BME280;6186;52.022;4.692;2022-11-20T14:34:20;100653.09;;;4.00;100.00
12247;BME280;6186;52.022;4.692;2022-11-20T14:36:47;100660.94;;;4.03;100.00
12247;BME280;6186;52.022;4.692;2022-11-20T14:39:35;100653.13;;;4.03;100.00
12247;BME280;6186;52.022;4.692;2022-11-20T14:42:01;100651.38;;;4.02;100.00
12247;BME280;6186;52.022;4.692;2022-11-20T14:44:32;100645.31;;;4.03;100.00